Waynetown, Indiana
Current Conditions -  °F | °C
As of 6:54 PM on Friday 21 Nov 2014 (Local Time) from KLAF Reporting Station
Clear Clear  
Wind Chill: 19°   Ceiling: Unl
Heat Index: 26°   Visibility: 10mi
Dew Point: 13°   Wind: 6mph
Humidity: 58%   Direction: 130°SE
Pressure: 30.38"   Gusts: NA
Location:  40.09°N, 87.06°W
Report Text: KLAF 212354Z 13005KT 10SM CLR M03/M11 A3038 RMK AO2 SLP296 T10331106 10000 21033 58010
Loading
Personal Weather Stations






























Interactive Weather Map New forecast layout! Learn more

10-Day Weather Forecast

Advertisements
Track Severe Weather on mobile